createdAt,value
2022-10-11T00:02:03.583Z,10.55
2022-10-11T00:04:30.336Z,7.25
2022-10-11T00:06:56.906Z,12.10
2022-10-11T00:09:23.569Z,14.40
2022-10-11T00:11:50.264Z,7.85
2022-10-11T00:14:16.907Z,10.00
2022-10-11T00:16:44.558Z,11.38
2022-10-11T00:19:11.635Z,17.25
2022-10-11T00:21:38.257Z,15.63
2022-10-11T00:24:22.987Z,8.68
2022-10-11T00:26:49.583Z,10.23
2022-10-11T00:29:16.297Z,11.23
2022-10-11T00:31:42.875Z,10.15
2022-10-11T00:34:12.193Z,11.60
2022-10-11T00:36:38.985Z,12.77
2022-10-11T00:39:05.910Z,18.48
2022-10-11T00:41:32.673Z,11.45
2022-10-11T00:44:10.680Z,10.40
2022-10-11T00:46:37.838Z,10.60
2022-10-11T00:49:19.581Z,9.02
2022-10-11T00:51:51.644Z,9.85
2022-10-11T00:54:23.390Z,9.85
2022-10-11T00:57:03.245Z,9.25
2022-10-11T00:59:34.917Z,8.63
2022-10-11T01:02:01.770Z,9.25
2022-10-11T01:04:28.647Z,10.82
2022-10-11T01:06:56.034Z,12.15
2022-10-11T01:09:22.784Z,8.40
2022-10-11T01:11:52.238Z,13.50
2022-10-11T01:14:33.565Z,8.48
2022-10-11T01:17:09.140Z,8.32
2022-10-11T01:19:35.671Z,8.25
2022-10-11T01:22:46.719Z,11.60
2022-10-11T01:25:20.994Z,12.68
2022-10-11T01:28:02.158Z,10.10
2022-10-11T01:30:34.496Z,14.18
2022-10-11T01:33:17.053Z,14.30
2022-10-11T01:35:48.833Z,20.30
2022-10-11T01:38:35.816Z,17.15
2022-10-11T01:41:18.736Z,24.80
2022-10-11T01:43:46.382Z,18.63
2022-10-11T01:46:13.678Z,14.55
2022-10-11T01:48:51.537Z,18.40
2022-10-11T01:51:22.968Z,19.15
2022-10-11T01:54:07.482Z,18.50
2022-10-11T01:57:01.662Z,19.67
2022-10-11T01:59:41.012Z,15.45
2022-10-11T02:02:38.100Z,16.75
2022-10-11T02:05:21.044Z,19.08
2022-10-11T02:08:09.376Z,14.48
2022-10-11T02:10:50.146Z,17.08
2022-10-11T02:13:38.766Z,15.90
2022-10-11T02:16:11.105Z,16.48
2022-10-11T02:18:47.080Z,22.58
2022-10-11T02:21:18.389Z,13.90
2022-10-11T02:23:53.645Z,12.00
2022-10-11T02:26:22.003Z,13.45
2022-10-11T02:28:51.310Z,15.73
2022-10-11T02:31:19.496Z,16.85
2022-10-11T02:33:56.865Z,14.48
2022-10-11T02:36:31.296Z,26.88
2022-10-11T02:39:04.377Z,14.90
2022-10-11T02:41:39.729Z,16.38
2022-10-11T02:44:32.518Z,14.30
2022-10-11T02:47:02.381Z,13.70
2022-10-11T02:49:31.731Z,18.88
2022-10-11T02:51:59.452Z,21.58
2022-10-11T02:54:26.464Z,16.15
2022-10-11T02:56:53.442Z,19.15
2022-10-11T02:59:20.119Z,14.57
2022-10-11T03:01:46.919Z,17.30
2022-10-11T03:04:14.091Z,19.35
2022-10-11T03:06:43.436Z,16.45
2022-10-11T03:09:10.038Z,21.25
2022-10-11T03:11:36.778Z,23.17
2022-10-11T03:14:03.440Z,17.48
2022-10-11T03:16:29.968Z,21.73
2022-10-11T03:18:56.495Z,20.02
2022-10-11T03:21:25.192Z,18.05
2022-10-11T03:23:51.749Z,21.10
2022-10-11T03:26:18.358Z,19.00
2022-10-11T03:28:45.171Z,21.00
2022-10-11T03:31:12.191Z,21.35
2022-10-11T03:33:38.984Z,21.77
2022-10-11T03:36:06.174Z,32.10
2022-10-11T03:38:33.587Z,23.40
2022-10-11T03:41:01.297Z,23.88
2022-10-11T03:43:28.035Z,24.10
2022-10-11T03:45:54.636Z,27.55
2022-10-11T03:48:21.202Z,27.83
2022-10-11T03:50:48.889Z,26.98
2022-10-11T03:53:15.561Z,23.45
2022-10-11T03:55:42.150Z,32.08
2022-10-11T03:58:09.340Z,40.60
2022-10-11T04:00:36.700Z,28.25
2022-10-11T04:03:06.470Z,27.42
2022-10-11T04:05:33.260Z,31.70
2022-10-11T04:07:59.808Z,28.67
2022-10-11T04:10:26.345Z,27.98
2022-10-11T04:12:52.937Z,26.08
2022-10-11T04:15:19.621Z,24.88
2022-10-11T04:17:46.261Z,23.30
2022-10-11T04:20:12.845Z,24.23
2022-10-11T04:22:39.445Z,30.77
2022-10-11T04:25:07.157Z,23.70
2022-10-11T04:27:34.010Z,23.45
2022-10-11T04:30:00.781Z,24.08
2022-10-11T04:32:27.845Z,25.02
2022-10-11T04:34:54.460Z,27.08
2022-10-11T04:37:21.003Z,23.80
2022-10-11T04:39:47.549Z,18.48
2022-10-11T04:42:14.128Z,25.63
2022-10-11T04:44:40.626Z,29.55
2022-10-11T04:47:07.165Z,33.65
2022-10-11T04:49:33.724Z,23.20
2022-10-11T04:52:00.486Z,22.23
2022-10-11T04:54:27.117Z,26.60
2022-10-11T04:56:53.761Z,27.75
2022-10-11T04:59:20.436Z,22.70
2022-10-11T05:01:47.231Z,23.60
2022-10-11T05:04:13.837Z,26.25
2022-10-11T05:06:40.472Z,21.60
2022-10-11T05:09:07.150Z,21.08
2022-10-11T05:11:33.741Z,25.45
2022-10-11T05:14:00.425Z,25.23
2022-10-11T05:16:27.295Z,25.90
2022-10-11T05:18:53.867Z,28.48
2022-10-11T05:21:25.837Z,30.85
2022-10-11T05:23:53.850Z,27.23
2022-10-11T05:26:20.936Z,29.70
2022-10-11T05:28:48.142Z,34.67
2022-10-11T05:31:15.660Z,29.45
2022-10-11T05:33:42.918Z,21.35
2022-10-11T05:36:10.503Z,24.05
2022-10-11T05:38:38.295Z,26.92
2022-10-11T05:41:05.833Z,23.58
2022-10-11T05:43:32.747Z,25.55
2022-10-11T05:45:59.688Z,23.20
2022-10-11T05:48:28.738Z,23.00
2022-10-11T05:51:03.052Z,19.27
2022-10-11T05:53:30.122Z,23.15
2022-10-11T05:55:56.884Z,21.70
2022-10-11T05:58:23.679Z,15.20
2022-10-11T06:00:50.346Z,27.17
2022-10-11T06:03:17.155Z,43.28
2022-10-11T06:05:43.743Z,27.85
2022-10-11T06:08:10.820Z,26.13
2022-10-11T06:10:38.435Z,18.38
2022-10-11T06:13:05.734Z,18.92
2022-10-11T06:15:32.777Z,34.25
2022-10-11T06:17:59.407Z,23.35
2022-10-11T06:20:26.984Z,21.75
2022-10-11T06:22:53.855Z,23.77
2022-10-11T06:25:20.536Z,23.15
2022-10-11T06:27:47.232Z,80.13
2022-10-11T06:30:14.756Z,61.30
2022-10-11T06:32:41.313Z,20.17
2022-10-11T06:35:08.276Z,27.23
2022-10-11T06:37:34.861Z,24.80
2022-10-11T06:40:01.495Z,20.30
2022-10-11T06:42:28.035Z,30.88
2022-10-11T06:44:54.651Z,25.20
2022-10-11T06:47:21.176Z,26.25
2022-10-11T06:49:50.411Z,33.08
2022-10-11T06:52:16.948Z,24.30
2022-10-11T06:54:45.044Z,26.63
2022-10-11T06:57:12.083Z,20.33
2022-10-11T06:59:38.733Z,25.35
2022-10-11T07:02:05.315Z,31.92
2022-10-11T07:04:33.796Z,20.85
2022-10-11T07:07:00.459Z,18.13
2022-10-11T07:09:27.033Z,17.13
2022-10-11T07:11:53.536Z,20.58
2022-10-11T07:14:20.101Z,24.08
2022-10-11T07:16:46.683Z,24.35
2022-10-11T07:19:13.464Z,19.40
2022-10-11T07:21:40.010Z,56.08
2022-10-11T07:24:06.934Z,29.48
2022-10-11T07:26:38.853Z,25.30
2022-10-11T07:29:08.101Z,23.35
2022-10-11T07:31:37.210Z,20.05
2022-10-11T07:34:03.856Z,19.50
2022-10-11T07:36:30.504Z,18.13
2022-10-11T07:38:57.039Z,19.00
2022-10-11T07:41:23.545Z,19.65
2022-10-11T07:43:51.028Z,19.83
2022-10-11T07:46:18.363Z,16.80
2022-10-11T07:48:45.030Z,23.15
2022-10-11T07:51:18.050Z,20.08
2022-10-11T07:53:56.120Z,15.70
2022-10-11T07:56:31.499Z,22.50
2022-10-11T07:59:00.814Z,24.48
2022-10-11T08:01:28.379Z,22.63
2022-10-11T08:03:57.004Z,23.83
2022-10-11T08:06:29.220Z,19.23
2022-10-11T08:08:57.071Z,16.40
2022-10-11T08:11:31.585Z,19.15
2022-10-11T08:13:58.919Z,17.35
2022-10-11T08:16:25.751Z,17.35
2022-10-11T08:18:54.417Z,18.42
2022-10-11T08:21:21.177Z,17.20
2022-10-11T08:23:47.892Z,20.15
2022-10-11T08:26:14.820Z,14.15
2022-10-11T08:28:41.462Z,13.75
2022-10-11T08:31:10.096Z,14.02
2022-10-11T08:33:36.795Z,13.48
2022-10-11T08:36:06.051Z,14.65
2022-10-11T08:38:34.233Z,19.00
2022-10-11T08:41:02.034Z,14.65
2022-10-11T08:43:56.571Z,19.17
2022-10-11T08:46:28.440Z,11.40
2022-10-11T08:48:55.491Z,16.40
2022-10-11T08:51:30.749Z,15.48
2022-10-11T08:54:07.569Z,24.17
2022-10-11T08:56:37.345Z,18.98
2022-10-11T08:59:12.594Z,14.68
2022-10-11T09:01:53.297Z,14.82
2022-10-11T09:04:20.132Z,15.73
2022-10-11T09:07:11.776Z,12.57
2022-10-11T09:09:59.996Z,19.60
2022-10-11T09:13:00.093Z,14.63
2022-10-11T09:15:48.201Z,14.40
2022-10-11T09:18:33.368Z,18.17
2022-10-11T09:24:47.348Z,13.63
2022-10-11T09:27:57.213Z,16.52
2022-10-11T09:30:19.154Z,14.68
2022-10-11T09:33:11.533Z,16.45
2022-10-11T09:35:42.805Z,16.58
2022-10-11T09:38:32.698Z,12.48
2022-10-11T09:41:09.261Z,15.02
2022-10-11T09:43:36.049Z,13.52
2022-10-11T09:46:03.080Z,13.93
2022-10-11T09:48:41.378Z,16.67
2022-10-11T09:51:28.883Z,16.58
2022-10-11T09:54:01.169Z,17.88
2022-10-11T09:56:33.711Z,18.58
2022-10-11T09:59:18.796Z,17.45
2022-10-11T10:01:45.396Z,12.77
2022-10-11T10:04:16.938Z,14.73
2022-10-11T10:06:43.573Z,12.68
2022-10-11T10:09:33.225Z,13.52
2022-10-11T10:12:12.136Z,15.98
2022-10-11T10:14:54.379Z,11.07
2022-10-11T10:17:24.010Z,12.77
2022-10-11T10:19:54.734Z,14.30
2022-10-11T10:22:22.891Z,14.45
2022-10-11T10:24:51.382Z,14.90
2022-10-11T10:27:29.795Z,14.27
2022-10-11T10:30:00.237Z,15.80
2022-10-11T10:32:56.376Z,14.30
2022-10-11T10:35:30.421Z,18.00
2022-10-11T10:38:26.190Z,15.55
2022-10-11T10:40:58.136Z,15.73
2022-10-11T10:43:33.990Z,16.48
2022-10-11T10:46:18.845Z,16.05
2022-10-11T10:52:26.149Z,20.13
2022-10-11T10:55:12.752Z,20.98
2022-10-11T10:58:03.130Z,16.38
2022-10-11T11:00:41.773Z,17.70
2022-10-11T11:03:24.631Z,15.40
2022-10-11T11:06:06.558Z,23.83
2022-10-11T11:08:42.584Z,16.73
2022-10-11T11:11:36.011Z,15.13
2022-10-11T11:14:19.119Z,20.20
2022-10-11T11:17:15.414Z,17.58
2022-10-11T11:19:44.572Z,18.10
2022-10-11T11:22:35.629Z,17.48
2022-10-11T11:25:14.878Z,17.67
2022-10-11T11:28:10.216Z,36.45
2022-10-11T11:30:52.488Z,16.42
2022-10-11T11:33:51.382Z,20.35
2022-10-11T11:36:27.617Z,14.93
2022-10-11T11:38:59.765Z,16.50
2022-10-11T11:41:31.057Z,18.80
2022-10-11T11:44:31.344Z,16.13
2022-10-11T11:47:12.515Z,18.48
2022-10-11T11:52:20.315Z,19.83
2022-10-11T11:55:03.916Z,15.75
2022-10-11T11:57:52.253Z,15.38
2022-10-11T12:00:25.837Z,19.95
2022-10-11T12:03:11.353Z,21.10
2022-10-11T12:05:37.969Z,17.58
2022-10-11T12:08:24.400Z,21.00
2022-10-11T12:10:50.858Z,19.10
2022-10-11T12:13:37.199Z,17.13
2022-10-11T12:16:03.669Z,19.88
2022-10-11T12:18:31.948Z,20.77
2022-10-11T12:21:21.889Z,22.90
2022-10-11T12:23:53.824Z,19.00
2022-10-11T12:26:29.842Z,27.13
2022-10-11T12:29:02.429Z,20.27
2022-10-11T12:31:36.087Z,19.42
2022-10-11T12:34:08.592Z,27.98
2022-10-11T12:36:38.281Z,20.80
2022-10-11T12:39:20.416Z,21.70
2022-10-11T12:41:50.246Z,17.70
2022-10-11T12:44:22.796Z,21.42
2022-10-11T12:46:55.072Z,18.88
2022-10-11T12:49:21.691Z,23.38
2022-10-11T12:52:20.616Z,23.85
2022-10-11T12:55:25.563Z,19.40
2022-10-11T12:57:59.184Z,15.93
2022-10-11T13:00:30.009Z,19.48
2022-10-11T13:03:04.771Z,15.30
2022-10-11T13:08:05.716Z,18.00
2022-10-11T13:10:42.484Z,17.70
2022-10-11T13:13:27.276Z,20.95
2022-10-11T13:15:56.162Z,21.00
2022-10-11T13:18:25.135Z,22.08
2022-10-11T13:20:52.027Z,22.23
2022-10-11T13:23:38.192Z,24.33
2022-10-11T13:26:05.047Z,22.35
2022-10-11T13:28:36.301Z,22.33
2022-10-11T13:31:04.641Z,23.58
2022-10-11T13:33:35.659Z,20.45
2022-10-11T13:36:06.152Z,19.90
2022-10-11T13:38:36.196Z,17.73
2022-10-11T13:41:09.084Z,26.92
2022-10-11T13:43:36.800Z,23.20
2022-10-11T13:46:05.142Z,19.83
2022-10-11T13:48:32.390Z,24.63
2022-10-11T13:51:14.013Z,19.77
2022-10-11T13:54:04.417Z,24.48
2022-10-11T13:56:52.315Z,21.52
2022-10-11T13:59:22.219Z,22.08
2022-10-11T14:01:52.007Z,23.38
2022-10-11T14:04:18.865Z,25.15
2022-10-11T14:06:51.360Z,27.02
2022-10-11T14:09:26.463Z,26.85
2022-10-11T14:11:53.948Z,20.75
2022-10-11T14:14:34.185Z,22.35
2022-10-11T14:17:15.354Z,23.17
2022-10-11T14:19:43.872Z,23.88
2022-10-11T14:22:14.981Z,18.05
2022-10-11T14:24:42.280Z,31.38
2022-10-11T14:27:17.525Z,24.60
2022-10-11T14:29:55.634Z,28.30
2022-10-11T14:32:34.250Z,21.42
2022-10-11T14:35:01.233Z,24.63
2022-10-11T14:37:27.766Z,24.48
2022-10-11T14:39:54.472Z,25.48
2022-10-11T14:42:21.091Z,20.95
2022-10-11T14:44:47.622Z,20.58
2022-10-11T14:47:16.833Z,23.98
2022-10-11T14:49:43.392Z,21.95
2022-10-11T14:52:13.762Z,23.23
2022-10-11T14:54:40.916Z,25.90
2022-10-11T14:57:07.550Z,26.17
2022-10-11T14:59:37.079Z,25.17
2022-10-11T15:02:06.144Z,21.20
2022-10-11T15:04:33.124Z,25.40
2022-10-11T15:07:00.063Z,24.85
2022-10-11T15:09:26.620Z,25.52
2022-10-11T15:11:54.866Z,29.90
2022-10-11T15:14:25.292Z,23.45
2022-10-11T15:16:52.643Z,19.75
2022-10-11T15:19:22.538Z,28.92
2022-10-11T15:21:49.516Z,25.33
2022-10-11T15:24:16.819Z,23.45
2022-10-11T15:26:44.109Z,29.58
2022-10-11T15:29:11.836Z,26.30
2022-10-11T15:31:39.488Z,29.23
2022-10-11T15:34:06.121Z,25.85
2022-10-11T15:36:32.699Z,25.08
2022-10-11T15:38:59.328Z,34.67
2022-10-11T15:41:28.038Z,31.23
2022-10-11T15:43:54.618Z,35.10
2022-10-11T15:46:23.300Z,27.40
2022-10-11T15:48:51.736Z,26.50
2022-10-11T15:51:18.998Z,30.63
2022-10-11T15:53:45.691Z,29.88
2022-10-11T15:56:18.996Z,33.63
2022-10-11T15:58:45.961Z,28.08
2022-10-11T16:01:16.151Z,25.17
2022-10-11T16:03:43.566Z,30.80
2022-10-11T16:06:10.888Z,32.75
2022-10-11T16:08:38.335Z,33.83
2022-10-11T16:11:06.771Z,32.22
2022-10-11T16:13:33.835Z,27.13
2022-10-11T16:16:02.358Z,25.92
2022-10-11T16:18:34.902Z,29.83
2022-10-11T16:21:08.296Z,27.50
2022-10-11T16:23:35.368Z,25.30
2022-10-11T16:26:08.934Z,25.08
2022-10-11T16:28:36.116Z,26.50
2022-10-11T16:31:10.292Z,28.48
2022-10-11T16:33:45.963Z,24.27
2022-10-11T16:36:36.673Z,26.38
2022-10-11T16:39:12.015Z,26.45
2022-10-11T16:41:38.785Z,27.90
2022-10-11T16:44:05.824Z,30.77
2022-10-11T16:46:33.276Z,32.35
2022-10-11T16:49:00.102Z,29.73
2022-10-11T16:51:27.006Z,31.17
2022-10-11T16:53:53.592Z,38.97
2022-10-11T16:56:24.144Z,34.08
2022-10-11T16:58:53.060Z,27.92
2022-10-11T17:01:20.277Z,24.65
2022-10-11T17:03:47.065Z,30.27
2022-10-11T17:06:13.596Z,30.60
2022-10-11T17:08:40.178Z,34.70
2022-10-11T17:11:06.859Z,30.73
2022-10-11T17:13:33.594Z,31.33
2022-10-11T17:16:00.385Z,39.25
2022-10-11T17:18:27.159Z,31.27
2022-10-11T17:21:03.043Z,27.70
2022-10-11T17:23:29.709Z,33.40
2022-10-11T17:25:56.257Z,27.63
2022-10-11T17:28:22.981Z,37.88
2022-10-11T17:30:57.965Z,37.08
2022-10-11T17:33:26.415Z,36.47
2022-10-11T17:35:54.634Z,40.42
2022-10-11T17:38:22.438Z,34.10
2022-10-11T17:41:02.125Z,30.95
2022-10-11T17:43:28.963Z,34.22
2022-10-11T17:46:00.484Z,33.58
2022-10-11T17:48:28.279Z,32.67
2022-10-11T17:50:55.077Z,36.03
2022-10-11T17:53:21.911Z,30.00
2022-10-11T17:55:54.184Z,28.55
2022-10-11T17:58:20.721Z,39.17
2022-10-11T18:00:47.345Z,30.70
2022-10-11T18:03:14.085Z,33.42
2022-10-11T18:05:41.963Z,33.13
2022-10-11T18:08:09.796Z,31.88
2022-10-11T18:10:37.746Z,32.45
2022-10-11T18:13:06.622Z,34.10
2022-10-11T18:15:33.925Z,32.90
2022-10-11T18:18:00.505Z,33.78
2022-10-11T18:20:27.088Z,34.90
2022-10-11T18:22:54.270Z,31.83
2022-10-11T18:25:20.882Z,36.13
2022-10-11T18:27:47.454Z,32.53
2022-10-11T18:30:14.643Z,31.05
2022-10-11T18:32:41.245Z,33.17
2022-10-11T18:35:08.251Z,31.30
2022-10-11T18:37:34.776Z,32.85
2022-10-11T18:40:01.381Z,30.92
2022-10-11T18:42:28.099Z,31.40
2022-10-11T18:44:55.372Z,28.90
2022-10-11T18:47:21.909Z,31.25
2022-10-11T18:49:48.436Z,30.85
2022-10-11T18:52:15.071Z,32.00
2022-10-11T18:54:41.629Z,39.80
2022-10-11T18:57:08.132Z,29.25
2022-10-11T18:59:34.834Z,32.55
2022-10-11T19:02:01.435Z,39.67
2022-10-11T19:04:28.662Z,32.75
2022-10-11T19:06:55.316Z,34.38
2022-10-11T19:09:24.430Z,30.42
2022-10-11T19:11:55.757Z,37.67
2022-10-11T19:14:31.566Z,31.42
2022-10-11T19:16:58.367Z,32.33
2022-10-11T19:19:27.450Z,32.42
2022-10-11T19:21:54.217Z,35.60
2022-10-11T19:24:23.828Z,32.22
2022-10-11T19:26:51.617Z,38.30
2022-10-11T19:29:21.986Z,34.33
2022-10-11T19:31:54.573Z,37.83
2022-10-11T19:34:23.516Z,38.28
2022-10-11T19:36:50.859Z,37.53
2022-10-11T19:39:18.393Z,36.67
2022-10-11T19:41:45.397Z,38.78
2022-10-11T19:44:13.316Z,33.17
2022-10-11T19:46:55.935Z,40.75
2022-10-11T19:49:25.259Z,34.30
2022-10-11T19:51:53.149Z,32.92
2022-10-11T19:54:19.914Z,35.72
2022-10-11T19:56:46.974Z,35.72
2022-10-11T19:59:14.640Z,32.85
2022-10-11T20:01:42.532Z,30.80
2022-10-11T20:04:22.963Z,35.45
2022-10-11T20:06:58.158Z,27.98
2022-10-11T20:09:29.500Z,46.33
2022-10-11T20:11:57.217Z,42.55
2022-10-11T20:14:24.032Z,40.85
2022-10-11T20:16:50.850Z,31.83
2022-10-11T20:19:17.923Z,30.00
2022-10-11T20:21:45.216Z,33.47
2022-10-11T20:24:12.085Z,36.38
2022-10-11T20:26:39.364Z,33.05
2022-10-11T20:29:07.660Z,36.60
2022-10-11T20:31:38.272Z,32.08
2022-10-11T20:34:07.365Z,31.27
2022-10-11T20:36:36.167Z,30.42
2022-10-11T20:39:04.677Z,30.35
2022-10-11T20:41:34.128Z,32.00
2022-10-11T20:44:02.081Z,38.42
2022-10-11T20:46:31.587Z,32.60
2022-10-11T20:49:02.057Z,32.40
2022-10-11T20:51:31.047Z,32.47
2022-10-11T20:53:58.782Z,34.30
2022-10-11T20:56:25.748Z,30.25
2022-10-11T20:58:56.740Z,31.95
2022-10-11T21:01:33.122Z,32.50
2022-10-11T21:04:00.995Z,32.78
2022-10-11T21:06:29.468Z,31.35
2022-10-11T21:08:56.758Z,35.95
2022-10-11T21:11:41.279Z,37.13
2022-10-11T21:14:07.908Z,33.85
2022-10-11T21:16:34.946Z,28.65
2022-10-11T21:19:02.360Z,32.47
2022-10-11T21:21:29.925Z,30.00
2022-10-11T21:23:58.864Z,40.25
2022-10-11T21:26:26.022Z,32.65
2022-10-11T21:28:52.664Z,33.38
2022-10-11T21:31:21.319Z,30.17
2022-10-11T21:33:48.173Z,36.10
2022-10-11T21:36:18.569Z,32.22
2022-10-11T21:38:45.321Z,37.65
2022-10-11T21:41:16.322Z,34.97
2022-10-11T21:43:43.130Z,34.33
2022-10-11T21:46:15.933Z,37.70
2022-10-11T21:48:42.503Z,30.60
2022-10-11T21:51:26.670Z,34.30
2022-10-11T21:53:55.176Z,33.08
2022-10-11T21:56:21.912Z,32.97
2022-10-11T21:58:49.936Z,31.15
2022-10-11T22:01:17.817Z,32.08
2022-10-11T22:03:44.900Z,38.65
2022-10-11T22:06:12.228Z,37.85
2022-10-11T22:08:39.490Z,29.30
2022-10-11T22:11:06.783Z,36.38
2022-10-11T22:13:34.181Z,33.55
2022-10-11T22:16:09.282Z,30.70
2022-10-11T22:18:36.341Z,40.25
2022-10-11T22:21:08.452Z,37.13
2022-10-11T22:23:35.379Z,33.08
2022-10-11T22:26:04.484Z,31.88
2022-10-11T22:28:31.387Z,41.22
2022-10-11T22:30:58.121Z,34.72
2022-10-11T22:33:24.889Z,36.78
2022-10-11T22:35:59.296Z,35.05
2022-10-11T22:38:26.432Z,31.45
2022-10-11T22:40:53.685Z,28.67
2022-10-11T22:43:20.641Z,31.70
2022-10-11T22:45:47.302Z,32.45
2022-10-11T22:48:13.796Z,34.08
2022-10-11T22:50:40.403Z,30.02
2022-10-11T22:53:07.948Z,31.00
2022-10-11T22:55:35.161Z,31.15
2022-10-11T22:58:01.672Z,32.47
2022-10-11T23:00:28.239Z,34.15
2022-10-11T23:02:54.813Z,27.42
2022-10-11T23:05:21.520Z,29.10
2022-10-11T23:07:48.340Z,29.15
2022-10-11T23:10:15.705Z,31.48
2022-10-11T23:12:42.380Z,29.17
2022-10-11T23:15:10.213Z,32.13
2022-10-11T23:17:36.913Z,28.88
2022-10-11T23:20:04.947Z,36.50
2022-10-11T23:22:31.496Z,29.27
2022-10-11T23:24:58.104Z,38.33
2022-10-11T23:27:24.674Z,30.50
2022-10-11T23:29:51.201Z,32.10
2022-10-11T23:32:17.952Z,29.02
2022-10-11T23:34:44.503Z,31.52
2022-10-11T23:37:11.092Z,28.73
2022-10-11T23:39:37.610Z,33.47
2022-10-11T23:42:04.324Z,28.60
2022-10-11T23:44:30.897Z,24.45
2022-10-11T23:46:57.435Z,26.15
2022-10-11T23:49:24.022Z,29.90
2022-10-11T23:51:50.584Z,40.58
2022-10-11T23:54:17.070Z,32.42
2022-10-11T23:56:43.595Z,32.05
2022-10-11T23:59:10.133Z,33.90
